sensor_id;sensor_type;location;lat;lon;timestamp;P1;durP1;ratioP1;P2;durP2;ratioP2
18793;SDS011;29610;49.022;12.114;2023-09-30T00:00:06;34.80;;;10.40;;
18793;SDS011;29610;49.022;12.114;2023-09-30T00:02:39;32.23;;;11.37;;
18793;SDS011;29610;49.022;12.114;2023-09-30T00:05:09;26.27;;;9.23;;
18793;SDS011;29610;49.022;12.114;2023-09-30T00:07:38;28.43;;;9.67;;
18793;SDS011;29610;49.022;12.114;2023-09-30T00:10:06;23.93;;;8.27;;
18793;SDS011;29610;49.022;12.114;2023-09-30T00:12:38;28.80;;;9.80;;
18793;SDS011;29610;49.022;12.114;2023-09-30T00:15:06;29.57;;;9.60;;
18793;SDS011;29610;49.022;12.114;2023-09-30T00:17:35;35.43;;;10.57;;
18793;SDS011;29610;49.022;12.114;2023-09-30T00:20:04;33.00;;;10.00;;
18793;SDS011;29610;49.022;12.114;2023-09-30T00:22:36;26.40;;;9.30;;
18793;SDS011;29610;49.022;12.114;2023-09-30T00:25:05;24.00;;;8.60;;
18793;SDS011;29610;49.022;12.114;2023-09-30T00:27:34;31.17;;;9.77;;
18793;SDS011;29610;49.022;12.114;2023-09-30T00:30:03;27.23;;;8.87;;
18793;SDS011;29610;49.022;12.114;2023-09-30T00:32:34;25.60;;;9.00;;
18793;SDS011;29610;49.022;12.114;2023-09-30T00:35:02;24.93;;;8.43;;
18793;SDS011;29610;49.022;12.114;2023-09-30T00:37:31;28.13;;;9.00;;
18793;SDS011;29610;49.022;12.114;2023-09-30T00:40:01;28.57;;;8.40;;
18793;SDS011;29610;49.022;12.114;2023-09-30T00:42:30;24.03;;;8.47;;
18793;SDS011;29610;49.022;12.114;2023-09-30T00:44:58;26.90;;;7.53;;
18793;SDS011;29610;49.022;12.114;2023-09-30T00:47:27;21.30;;;7.23;;
18793;SDS011;29610;49.022;12.114;2023-09-30T00:49:55;23.80;;;7.13;;
18793;SDS011;29610;49.022;12.114;2023-09-30T00:52:23;22.20;;;7.37;;
18793;SDS011;29610;49.022;12.114;2023-09-30T00:54:52;20.50;;;6.43;;
18793;SDS011;29610;49.022;12.114;2023-09-30T00:57:23;21.97;;;7.13;;
18793;SDS011;29610;49.022;12.114;2023-09-30T00:59:54;28.77;;;7.63;;
18793;SDS011;29610;49.022;12.114;2023-09-30T01:02:24;24.13;;;8.00;;
18793;SDS011;29610;49.022;12.114;2023-09-30T01:04:53;27.73;;;6.97;;
18793;SDS011;29610;49.022;12.114;2023-09-30T01:07:23;20.73;;;6.87;;
18793;SDS011;29610;49.022;12.114;2023-09-30T01:09:52;21.70;;;7.20;;
18793;SDS011;29610;49.022;12.114;2023-09-30T01:12:20;22.33;;;6.40;;
18793;SDS011;29610;49.022;12.114;2023-09-30T01:14:50;19.43;;;6.50;;
18793;SDS011;29610;49.022;12.114;2023-09-30T01:17:25;18.00;;;6.13;;
18793;SDS011;29610;49.022;12.114;2023-09-30T01:19:56;24.27;;;8.10;;
18793;SDS011;29610;49.022;12.114;2023-09-30T01:22:28;19.30;;;6.63;;
18793;SDS011;29610;49.022;12.114;2023-09-30T01:24:56;21.97;;;6.57;;
18793;SDS011;29610;49.022;12.114;2023-09-30T01:27:25;22.37;;;7.40;;
18793;SDS011;29610;49.022;12.114;2023-09-30T01:29:55;23.93;;;8.07;;
18793;SDS011;29610;49.022;12.114;2023-09-30T01:32:24;20.30;;;7.33;;
18793;SDS011;29610;49.022;12.114;2023-09-30T01:34:53;18.10;;;6.00;;
18793;SDS011;29610;49.022;12.114;2023-09-30T01:37:22;22.10;;;7.23;;
18793;SDS011;29610;49.022;12.114;2023-09-30T01:39:55;18.43;;;6.60;;
18793;SDS011;29610;49.022;12.114;2023-09-30T01:42:24;23.83;;;7.50;;
18793;SDS011;29610;49.022;12.114;2023-09-30T01:44:52;29.50;;;6.93;;
18793;SDS011;29610;49.022;12.114;2023-09-30T01:47:21;25.70;;;7.00;;
18793;SDS011;29610;49.022;12.114;2023-09-30T01:49:49;30.50;;;7.70;;
18793;SDS011;29610;49.022;12.114;2023-09-30T01:52:18;22.43;;;6.17;;
18793;SDS011;29610;49.022;12.114;2023-09-30T01:54:46;18.63;;;6.90;;
18793;SDS011;29610;49.022;12.114;2023-09-30T01:57:16;20.20;;;6.50;;
18793;SDS011;29610;49.022;12.114;2023-09-30T01:59:44;19.53;;;6.87;;
18793;SDS011;29610;49.022;12.114;2023-09-30T02:02:12;20.30;;;6.73;;
18793;SDS011;29610;49.022;12.114;2023-09-30T02:04:42;18.50;;;7.23;;
18793;SDS011;29610;49.022;12.114;2023-09-30T02:07:11;19.47;;;6.70;;
18793;SDS011;29610;49.022;12.114;2023-09-30T02:09:39;24.43;;;7.57;;
18793;SDS011;29610;49.022;12.114;2023-09-30T02:12:08;22.53;;;8.93;;
18793;SDS011;29610;49.022;12.114;2023-09-30T02:14:38;20.37;;;6.57;;
18793;SDS011;29610;49.022;12.114;2023-09-30T02:17:07;26.97;;;7.80;;
18793;SDS011;29610;49.022;12.114;2023-09-30T02:19:35;24.30;;;7.50;;
18793;SDS011;29610;49.022;12.114;2023-09-30T02:22:04;20.63;;;5.97;;
18793;SDS011;29610;49.022;12.114;2023-09-30T02:24:32;18.00;;;6.93;;
18793;SDS011;29610;49.022;12.114;2023-09-30T02:27:00;23.00;;;8.87;;
18793;SDS011;29610;49.022;12.114;2023-09-30T02:29:29;23.97;;;7.53;;
18793;SDS011;29610;49.022;12.114;2023-09-30T02:31:59;21.73;;;8.07;;
18793;SDS011;29610;49.022;12.114;2023-09-30T02:34:27;22.10;;;7.50;;
18793;SDS011;29610;49.022;12.114;2023-09-30T02:36:58;26.20;;;6.40;;
18793;SDS011;29610;49.022;12.114;2023-09-30T02:39:28;15.80;;;5.97;;
18793;SDS011;29610;49.022;12.114;2023-09-30T02:41:57;23.07;;;7.00;;
18793;SDS011;29610;49.022;12.114;2023-09-30T02:44:25;20.20;;;6.60;;
18793;SDS011;29610;49.022;12.114;2023-09-30T02:46:54;23.70;;;7.40;;
18793;SDS011;29610;49.022;12.114;2023-09-30T02:49:23;20.93;;;6.30;;
18793;SDS011;29610;49.022;12.114;2023-09-30T02:51:54;26.30;;;6.47;;
18793;SDS011;29610;49.022;12.114;2023-09-30T02:54:23;23.13;;;7.03;;
18793;SDS011;29610;49.022;12.114;2023-09-30T02:56:51;21.50;;;7.17;;
18793;SDS011;29610;49.022;12.114;2023-09-30T02:59:21;17.83;;;6.50;;
18793;SDS011;29610;49.022;12.114;2023-09-30T03:01:49;19.90;;;7.37;;
18793;SDS011;29610;49.022;12.114;2023-09-30T03:04:18;26.10;;;6.90;;
18793;SDS011;29610;49.022;12.114;2023-09-30T03:06:48;21.43;;;6.67;;
18793;SDS011;29610;49.022;12.114;2023-09-30T03:09:17;16.50;;;6.87;;
18793;SDS011;29610;49.022;12.114;2023-09-30T03:11:47;21.00;;;6.70;;
18793;SDS011;29610;49.022;12.114;2023-09-30T03:14:16;25.00;;;6.97;;
18793;SDS011;29610;49.022;12.114;2023-09-30T03:16:46;20.60;;;6.87;;
18793;SDS011;29610;49.022;12.114;2023-09-30T03:19:15;20.60;;;6.40;;
18793;SDS011;29610;49.022;12.114;2023-09-30T03:21:44;18.50;;;6.70;;
18793;SDS011;29610;49.022;12.114;2023-09-30T03:24:14;20.60;;;6.47;;
18793;SDS011;29610;49.022;12.114;2023-09-30T03:26:43;17.83;;;6.33;;
18793;SDS011;29610;49.022;12.114;2023-09-30T03:29:12;20.70;;;6.10;;
18793;SDS011;29610;49.022;12.114;2023-09-30T03:31:40;20.00;;;6.53;;
18793;SDS011;29610;49.022;12.114;2023-09-30T03:34:09;23.27;;;7.07;;
18793;SDS011;29610;49.022;12.114;2023-09-30T03:36:42;25.93;;;6.07;;
18793;SDS011;29610;49.022;12.114;2023-09-30T03:39:10;16.43;;;5.43;;
18793;SDS011;29610;49.022;12.114;2023-09-30T03:41:43;21.37;;;7.33;;
18793;SDS011;29610;49.022;12.114;2023-09-30T03:44:11;18.20;;;6.27;;
18793;SDS011;29610;49.022;12.114;2023-09-30T03:46:40;27.77;;;6.50;;
18793;SDS011;29610;49.022;12.114;2023-09-30T03:49:09;18.83;;;6.30;;
18793;SDS011;29610;49.022;12.114;2023-09-30T03:51:37;20.47;;;6.73;;
18793;SDS011;29610;49.022;12.114;2023-09-30T03:54:07;18.00;;;5.53;;
18793;SDS011;29610;49.022;12.114;2023-09-30T03:56:36;21.13;;;5.60;;
18793;SDS011;29610;49.022;12.114;2023-09-30T03:59:06;18.60;;;5.27;;
18793;SDS011;29610;49.022;12.114;2023-09-30T04:01:35;23.03;;;6.63;;
18793;SDS011;29610;49.022;12.114;2023-09-30T04:04:07;20.00;;;6.50;;
18793;SDS011;29610;49.022;12.114;2023-09-30T04:06:36;17.53;;;6.33;;
18793;SDS011;29610;49.022;12.114;2023-09-30T04:09:05;18.77;;;6.90;;
18793;SDS011;29610;49.022;12.114;2023-09-30T04:11:37;19.03;;;6.67;;
18793;SDS011;29610;49.022;12.114;2023-09-30T04:14:08;19.97;;;7.07;;
18793;SDS011;29610;49.022;12.114;2023-09-30T04:16:37;27.70;;;7.17;;
18793;SDS011;29610;49.022;12.114;2023-09-30T04:19:05;24.30;;;7.30;;
18793;SDS011;29610;49.022;12.114;2023-09-30T04:21:37;26.73;;;7.93;;
18793;SDS011;29610;49.022;12.114;2023-09-30T04:24:06;23.50;;;7.73;;
18793;SDS011;29610;49.022;12.114;2023-09-30T04:26:35;25.63;;;7.90;;
18793;SDS011;29610;49.022;12.114;2023-09-30T04:29:04;17.50;;;6.90;;
18793;SDS011;29610;49.022;12.114;2023-09-30T04:31:34;28.10;;;8.13;;
18793;SDS011;29610;49.022;12.114;2023-09-30T04:34:03;24.97;;;8.03;;
18793;SDS011;29610;49.022;12.114;2023-09-30T04:36:32;22.47;;;7.50;;
18793;SDS011;29610;49.022;12.114;2023-09-30T04:39:02;23.97;;;7.93;;
18793;SDS011;29610;49.022;12.114;2023-09-30T04:41:32;24.40;;;7.87;;
18793;SDS011;29610;49.022;12.114;2023-09-30T04:44:03;23.80;;;7.70;;
18793;SDS011;29610;49.022;12.114;2023-09-30T04:46:34;21.50;;;6.50;;
18793;SDS011;29610;49.022;12.114;2023-09-30T04:49:03;22.67;;;7.60;;
18793;SDS011;29610;49.022;12.114;2023-09-30T04:51:31;21.37;;;7.80;;
18793;SDS011;29610;49.022;12.114;2023-09-30T04:54:00;23.20;;;7.90;;
18793;SDS011;29610;49.022;12.114;2023-09-30T04:56:30;25.67;;;8.90;;
18793;SDS011;29610;49.022;12.114;2023-09-30T04:58:58;23.53;;;6.87;;
18793;SDS011;29610;49.022;12.114;2023-09-30T05:01:27;25.20;;;7.53;;
18793;SDS011;29610;49.022;12.114;2023-09-30T05:03:57;24.47;;;8.00;;
18793;SDS011;29610;49.022;12.114;2023-09-30T05:06:26;20.70;;;6.80;;
18793;SDS011;29610;49.022;12.114;2023-09-30T05:08:55;27.43;;;7.10;;
18793;SDS011;29610;49.022;12.114;2023-09-30T05:11:24;20.40;;;7.43;;
18793;SDS011;29610;49.022;12.114;2023-09-30T05:13:53;23.80;;;7.20;;
18793;SDS011;29610;49.022;12.114;2023-09-30T05:16:22;27.10;;;7.87;;
18793;SDS011;29610;49.022;12.114;2023-09-30T05:18:53;22.20;;;8.00;;
18793;SDS011;29610;49.022;12.114;2023-09-30T05:21:23;26.00;;;7.57;;
18793;SDS011;29610;49.022;12.114;2023-09-30T05:23:53;31.93;;;7.97;;
18793;SDS011;29610;49.022;12.114;2023-09-30T05:26:23;21.40;;;7.50;;
18793;SDS011;29610;49.022;12.114;2023-09-30T05:28:51;21.83;;;7.17;;
18793;SDS011;29610;49.022;12.114;2023-09-30T05:31:20;25.33;;;7.73;;
18793;SDS011;29610;49.022;12.114;2023-09-30T05:33:48;20.93;;;6.73;;
18793;SDS011;29610;49.022;12.114;2023-09-30T05:36:17;25.10;;;7.10;;
18793;SDS011;29610;49.022;12.114;2023-09-30T05:38:48;17.33;;;6.03;;
18793;SDS011;29610;49.022;12.114;2023-09-30T05:41:16;20.57;;;8.17;;
18793;SDS011;29610;49.022;12.114;2023-09-30T05:43:47;24.30;;;6.90;;
18793;SDS011;29610;49.022;12.114;2023-09-30T05:46:16;22.83;;;7.10;;
18793;SDS011;29610;49.022;12.114;2023-09-30T05:48:44;23.10;;;7.97;;
18793;SDS011;29610;49.022;12.114;2023-09-30T05:51:12;23.53;;;7.70;;
18793;SDS011;29610;49.022;12.114;2023-09-30T05:53:41;17.37;;;6.80;;
18793;SDS011;29610;49.022;12.114;2023-09-30T05:56:11;23.27;;;7.30;;
18793;SDS011;29610;49.022;12.114;2023-09-30T05:58:41;22.00;;;6.03;;
18793;SDS011;29610;49.022;12.114;2023-09-30T06:01:10;17.83;;;6.73;;
18793;SDS011;29610;49.022;12.114;2023-09-30T06:03:39;17.70;;;6.37;;
18793;SDS011;29610;49.022;12.114;2023-09-30T06:06:13;24.93;;;7.03;;
18793;SDS011;29610;49.022;12.114;2023-09-30T06:08:45;21.47;;;7.53;;
18793;SDS011;29610;49.022;12.114;2023-09-30T06:11:18;18.60;;;6.87;;
18793;SDS011;29610;49.022;12.114;2023-09-30T06:13:50;21.43;;;6.53;;
18793;SDS011;29610;49.022;12.114;2023-09-30T06:16:19;24.10;;;7.77;;
18793;SDS011;29610;49.022;12.114;2023-09-30T06:18:47;19.47;;;6.87;;
18793;SDS011;29610;49.022;12.114;2023-09-30T06:21:16;17.67;;;5.60;;
18793;SDS011;29610;49.022;12.114;2023-09-30T06:23:47;16.40;;;5.53;;
18793;SDS011;29610;49.022;12.114;2023-09-30T06:26:19;15.13;;;6.10;;
18793;SDS011;29610;49.022;12.114;2023-09-30T06:28:48;16.20;;;5.77;;
18793;SDS011;29610;49.022;12.114;2023-09-30T06:31:16;18.43;;;6.30;;
18793;SDS011;29610;49.022;12.114;2023-09-30T06:33:44;15.73;;;5.57;;
18793;SDS011;29610;49.022;12.114;2023-09-30T06:36:13;16.50;;;6.50;;
18793;SDS011;29610;49.022;12.114;2023-09-30T06:38:42;22.13;;;6.80;;
18793;SDS011;29610;49.022;12.114;2023-09-30T06:41:15;14.40;;;5.80;;
18793;SDS011;29610;49.022;12.114;2023-09-30T06:43:46;21.60;;;6.20;;
18793;SDS011;29610;49.022;12.114;2023-09-30T06:46:15;23.43;;;5.90;;
18793;SDS011;29610;49.022;12.114;2023-09-30T06:48:43;17.50;;;5.67;;
18793;SDS011;29610;49.022;12.114;2023-09-30T06:51:15;14.90;;;5.53;;
18793;SDS011;29610;49.022;12.114;2023-09-30T06:53:44;16.43;;;5.30;;
18793;SDS011;29610;49.022;12.114;2023-09-30T06:56:13;20.90;;;6.07;;
18793;SDS011;29610;49.022;12.114;2023-09-30T06:58:41;19.13;;;5.70;;
18793;SDS011;29610;49.022;12.114;2023-09-30T07:01:14;14.33;;;4.90;;
18793;SDS011;29610;49.022;12.114;2023-09-30T07:03:43;23.77;;;5.20;;
18793;SDS011;29610;49.022;12.114;2023-09-30T07:06:12;15.93;;;5.27;;
18793;SDS011;29610;49.022;12.114;2023-09-30T07:08:49;12.83;;;4.60;;
18793;SDS011;29610;49.022;12.114;2023-09-30T07:11:25;14.00;;;5.27;;
18793;SDS011;29610;49.022;12.114;2023-09-30T07:13:56;15.47;;;5.30;;
18793;SDS011;29610;49.022;12.114;2023-09-30T07:16:25;13.30;;;4.63;;
18793;SDS011;29610;49.022;12.114;2023-09-30T07:18:54;17.80;;;5.00;;
18793;SDS011;29610;49.022;12.114;2023-09-30T07:21:23;16.57;;;4.80;;
18793;SDS011;29610;49.022;12.114;2023-09-30T07:23:51;14.93;;;4.20;;
18793;SDS011;29610;49.022;12.114;2023-09-30T07:26:22;14.37;;;4.47;;
18793;SDS011;29610;49.022;12.114;2023-09-30T07:28:51;14.63;;;4.40;;
18793;SDS011;29610;49.022;12.114;2023-09-30T07:31:21;16.83;;;4.50;;
18793;SDS011;29610;49.022;12.114;2023-09-30T07:33:51;13.70;;;4.10;;
18793;SDS011;29610;49.022;12.114;2023-09-30T07:36:20;12.00;;;3.70;;
18793;SDS011;29610;49.022;12.114;2023-09-30T07:38:48;11.57;;;4.23;;
18793;SDS011;29610;49.022;12.114;2023-09-30T07:41:16;10.40;;;3.60;;
18793;SDS011;29610;49.022;12.114;2023-09-30T07:43:45;11.47;;;3.30;;
18793;SDS011;29610;49.022;12.114;2023-09-30T07:46:13;8.33;;;2.60;;
18793;SDS011;29610;49.022;12.114;2023-09-30T07:48:42;7.70;;;2.03;;
18793;SDS011;29610;49.022;12.114;2023-09-30T07:51:12;9.47;;;2.80;;
18793;SDS011;29610;49.022;12.114;2023-09-30T07:53:41;9.03;;;2.60;;
18793;SDS011;29610;49.022;12.114;2023-09-30T07:56:10;6.40;;;1.77;;
18793;SDS011;29610;49.022;12.114;2023-09-30T07:58:38;6.60;;;1.80;;
18793;SDS011;29610;49.022;12.114;2023-09-30T08:01:07;7.97;;;1.87;;
18793;SDS011;29610;49.022;12.114;2023-09-30T08:03:36;7.73;;;1.60;;
18793;SDS011;29610;49.022;12.114;2023-09-30T08:06:06;6.50;;;1.43;;
18793;SDS011;29610;49.022;12.114;2023-09-30T08:08:37;5.80;;;1.20;;
18793;SDS011;29610;49.022;12.114;2023-09-30T08:11:05;7.47;;;1.83;;
18793;SDS011;29610;49.022;12.114;2023-09-30T08:13:34;5.80;;;1.30;;
18793;SDS011;29610;49.022;12.114;2023-09-30T08:16:02;6.10;;;1.20;;
18793;SDS011;29610;49.022;12.114;2023-09-30T08:18:31;6.97;;;1.37;;
18793;SDS011;29610;49.022;12.114;2023-09-30T08:20:59;6.87;;;1.40;;
18793;SDS011;29610;49.022;12.114;2023-09-30T08:23:27;6.10;;;1.57;;
18793;SDS011;29610;49.022;12.114;2023-09-30T08:25:59;6.83;;;1.20;;
18793;SDS011;29610;49.022;12.114;2023-09-30T08:28:27;5.83;;;1.17;;
18793;SDS011;29610;49.022;12.114;2023-09-30T08:30:55;7.50;;;1.27;;
18793;SDS011;29610;49.022;12.114;2023-09-30T08:33:29;11.53;;;1.20;;
18793;SDS011;29610;49.022;12.114;2023-09-30T08:36:01;6.00;;;1.07;;
18793;SDS011;29610;49.022;12.114;2023-09-30T08:38:33;5.60;;;1.20;;
18793;SDS011;29610;49.022;12.114;2023-09-30T08:41:04;5.37;;;1.00;;
18793;SDS011;29610;49.022;12.114;2023-09-30T08:43:34;5.60;;;1.20;;
18793;SDS011;29610;49.022;12.114;2023-09-30T08:46:06;6.13;;;0.97;;
18793;SDS011;29610;49.022;12.114;2023-09-30T08:48:35;5.63;;;0.90;;
18793;SDS011;29610;49.022;12.114;2023-09-30T08:51:04;5.80;;;1.10;;
18793;SDS011;29610;49.022;12.114;2023-09-30T08:53:33;5.60;;;0.80;;
18793;SDS011;29610;49.022;12.114;2023-09-30T08:56:04;5.60;;;0.90;;
18793;SDS011;29610;49.022;12.114;2023-09-30T08:58:36;7.40;;;0.97;;
18793;SDS011;29610;49.022;12.114;2023-09-30T09:01:06;6.10;;;0.97;;
18793;SDS011;29610;49.022;12.114;2023-09-30T09:03:38;5.00;;;0.80;;
18793;SDS011;29610;49.022;12.114;2023-09-30T09:06:07;5.40;;;0.90;;
18793;SDS011;29610;49.022;12.114;2023-09-30T09:08:35;5.00;;;0.67;;
18793;SDS011;29610;49.022;12.114;2023-09-30T09:11:05;5.20;;;0.80;;
18793;SDS011;29610;49.022;12.114;2023-09-30T09:13:44;5.30;;;0.80;;
18793;SDS011;29610;49.022;12.114;2023-09-30T09:16:17;5.20;;;0.80;;
18793;SDS011;29610;49.022;12.114;2023-09-30T09:18:46;4.97;;;0.73;;
18793;SDS011;29610;49.022;12.114;2023-09-30T09:21:15;5.40;;;0.80;;
18793;SDS011;29610;49.022;12.114;2023-09-30T09:23:46;5.30;;;0.80;;
18793;SDS011;29610;49.022;12.114;2023-09-30T09:26:24;5.20;;;0.90;;
18793;SDS011;29610;49.022;12.114;2023-09-30T09:28:56;4.93;;;0.80;;
18793;SDS011;29610;49.022;12.114;2023-09-30T09:31:27;5.40;;;0.90;;
18793;SDS011;29610;49.022;12.114;2023-09-30T09:33:57;4.73;;;0.70;;
18793;SDS011;29610;49.022;12.114;2023-09-30T09:36:37;4.93;;;0.60;;
18793;SDS011;29610;49.022;12.114;2023-09-30T09:39:07;5.00;;;0.70;;
18793;SDS011;29610;49.022;12.114;2023-09-30T09:41:50;4.90;;;0.60;;
18793;SDS011;29610;49.022;12.114;2023-09-30T09:44:19;4.97;;;0.70;;
18793;SDS011;29610;49.022;12.114;2023-09-30T09:46:49;5.13;;;0.70;;
18793;SDS011;29610;49.022;12.114;2023-09-30T09:49:19;5.10;;;0.77;;
18793;SDS011;29610;49.022;12.114;2023-09-30T09:51:48;5.00;;;0.63;;
18793;SDS011;29610;49.022;12.114;2023-09-30T09:54:19;4.90;;;0.70;;
18793;SDS011;29610;49.022;12.114;2023-09-30T09:56:51;5.10;;;0.80;;
18793;SDS011;29610;49.022;12.114;2023-09-30T09:59:27;5.57;;;0.73;;
18793;SDS011;29610;49.022;12.114;2023-09-30T10:01:56;4.97;;;0.70;;
18793;SDS011;29610;49.022;12.114;2023-09-30T10:04:29;5.00;;;0.80;;
18793;SDS011;29610;49.022;12.114;2023-09-30T10:06:58;5.53;;;0.70;;
18793;SDS011;29610;49.022;12.114;2023-09-30T10:09:28;5.60;;;0.90;;
18793;SDS011;29610;49.022;12.114;2023-09-30T10:12:03;5.30;;;0.90;;
18793;SDS011;29610;49.022;12.114;2023-09-30T10:14:35;7.20;;;0.93;;
18793;SDS011;29610;49.022;12.114;2023-09-30T10:17:03;4.90;;;0.70;;
18793;SDS011;29610;49.022;12.114;2023-09-30T10:19:32;5.20;;;0.77;;
18793;SDS011;29610;49.022;12.114;2023-09-30T10:24:49;5.40;;;0.80;;
18793;SDS011;29610;49.022;12.114;2023-09-30T10:27:33;5.50;;;1.00;;
18793;SDS011;29610;49.022;12.114;2023-09-30T10:30:08;5.60;;;1.10;;
18793;SDS011;29610;49.022;12.114;2023-09-30T10:35:47;6.23;;;1.00;;
18793;SDS011;29610;49.022;12.114;2023-09-30T10:41:08;5.50;;;1.00;;
18793;SDS011;29610;49.022;12.114;2023-09-30T10:43:40;6.03;;;1.30;;
18793;SDS011;29610;49.022;12.114;2023-09-30T10:49:16;7.93;;;1.23;;
18793;SDS011;29610;49.022;12.114;2023-09-30T10:51:59;10.67;;;1.53;;
18793;SDS011;29610;49.022;12.114;2023-09-30T10:54:29;5.63;;;1.10;;
18793;SDS011;29610;49.022;12.114;2023-09-30T10:57:00;5.67;;;1.13;;
18793;SDS011;29610;49.022;12.114;2023-09-30T10:59:31;6.63;;;1.00;;
18793;SDS011;29610;49.022;12.114;2023-09-30T11:02:02;6.37;;;1.40;;
18793;SDS011;29610;49.022;12.114;2023-09-30T11:04:43;7.10;;;1.40;;
18793;SDS011;29610;49.022;12.114;2023-09-30T11:07:17;7.10;;;1.57;;
18793;SDS011;29610;49.022;12.114;2023-09-30T11:09:51;6.67;;;1.53;;
18793;SDS011;29610;49.022;12.114;2023-09-30T11:12:22;8.23;;;1.70;;
18793;SDS011;29610;49.022;12.114;2023-09-30T11:14:59;7.07;;;1.50;;
18793;SDS011;29610;49.022;12.114;2023-09-30T11:17:30;6.83;;;1.53;;
18793;SDS011;29610;49.022;12.114;2023-09-30T11:19:58;5.93;;;1.23;;
18793;SDS011;29610;49.022;12.114;2023-09-30T11:22:27;11.43;;;1.70;;
18793;SDS011;29610;49.022;12.114;2023-09-30T11:24:55;6.63;;;1.50;;
18793;SDS011;29610;49.022;12.114;2023-09-30T11:27:23;8.77;;;1.70;;
18793;SDS011;29610;49.022;12.114;2023-09-30T11:29:53;8.90;;;2.20;;
18793;SDS011;29610;49.022;12.114;2023-09-30T11:32:26;7.40;;;1.80;;
18793;SDS011;29610;49.022;12.114;2023-09-30T11:34:56;9.30;;;2.40;;
18793;SDS011;29610;49.022;12.114;2023-09-30T11:37:30;8.87;;;2.30;;
18793;SDS011;29610;49.022;12.114;2023-09-30T11:40:08;7.37;;;2.23;;
18793;SDS011;29610;49.022;12.114;2023-09-30T11:42:42;8.73;;;3.30;;
18793;SDS011;29610;49.022;12.114;2023-09-30T11:45:38;9.00;;;3.00;;
18793;SDS011;29610;49.022;12.114;2023-09-30T11:48:17;7.40;;;1.93;;
18793;SDS011;29610;49.022;12.114;2023-09-30T11:50:47;8.67;;;2.03;;
18793;SDS011;29610;49.022;12.114;2023-09-30T11:53:16;8.93;;;1.90;;
18793;SDS011;29610;49.022;12.114;2023-09-30T11:55:47;7.47;;;1.93;;
18793;SDS011;29610;49.022;12.114;2023-09-30T11:58:15;7.73;;;2.20;;
18793;SDS011;29610;49.022;12.114;2023-09-30T12:00:45;7.73;;;2.10;;
18793;SDS011;29610;49.022;12.114;2023-09-30T12:03:13;8.57;;;2.27;;
18793;SDS011;29610;49.022;12.114;2023-09-30T12:05:44;13.37;;;5.67;;
18793;SDS011;29610;49.022;12.114;2023-09-30T12:08:12;9.30;;;2.53;;
18793;SDS011;29610;49.022;12.114;2023-09-30T12:10:40;9.70;;;3.23;;
18793;SDS011;29610;49.022;12.114;2023-09-30T12:13:10;11.97;;;4.40;;
18793;SDS011;29610;49.022;12.114;2023-09-30T12:15:39;21.03;;;8.73;;
18793;SDS011;29610;49.022;12.114;2023-09-30T12:18:07;8.90;;;2.37;;
18793;SDS011;29610;49.022;12.114;2023-09-30T12:20:39;20.50;;;9.00;;
18793;SDS011;29610;49.022;12.114;2023-09-30T12:23:10;18.50;;;8.60;;
18793;SDS011;29610;49.022;12.114;2023-09-30T12:25:39;20.73;;;9.10;;
18793;SDS011;29610;49.022;12.114;2023-09-30T12:28:07;15.43;;;7.23;;
18793;SDS011;29610;49.022;12.114;2023-09-30T12:30:35;17.57;;;6.60;;
18793;SDS011;29610;49.022;12.114;2023-09-30T12:33:03;13.47;;;3.93;;
18793;SDS011;29610;49.022;12.114;2023-09-30T12:35:33;12.40;;;5.37;;
18793;SDS011;29610;49.022;12.114;2023-09-30T12:38:02;11.57;;;3.80;;
18793;SDS011;29610;49.022;12.114;2023-09-30T12:40:31;12.50;;;6.07;;
18793;SDS011;29610;49.022;12.114;2023-09-30T12:43:00;11.70;;;3.47;;
18793;SDS011;29610;49.022;12.114;2023-09-30T12:45:28;13.37;;;3.97;;
18793;SDS011;29610;49.022;12.114;2023-09-30T12:47:57;26.50;;;15.37;;
18793;SDS011;29610;49.022;12.114;2023-09-30T12:50:25;11.63;;;3.27;;
18793;SDS011;29610;49.022;12.114;2023-09-30T12:52:53;12.17;;;3.27;;
18793;SDS011;29610;49.022;12.114;2023-09-30T12:55:21;9.93;;;3.40;;
18793;SDS011;29610;49.022;12.114;2023-09-30T12:57:52;11.87;;;2.80;;
18793;SDS011;29610;49.022;12.114;2023-09-30T13:00:20;10.00;;;3.03;;
18793;SDS011;29610;49.022;12.114;2023-09-30T13:02:50;12.07;;;3.63;;
18793;SDS011;29610;49.022;12.114;2023-09-30T13:05:18;9.90;;;3.07;;
18793;SDS011;29610;49.022;12.114;2023-09-30T13:07:47;13.47;;;3.90;;
18793;SDS011;29610;49.022;12.114;2023-09-30T13:10:16;9.93;;;3.13;;
18793;SDS011;29610;49.022;12.114;2023-09-30T13:12:45;10.70;;;3.47;;
18793;SDS011;29610;49.022;12.114;2023-09-30T13:15:18;10.00;;;3.43;;
18793;SDS011;29610;49.022;12.114;2023-09-30T13:17:47;11.17;;;3.00;;
18793;SDS011;29610;49.022;12.114;2023-09-30T13:20:16;11.43;;;3.60;;
18793;SDS011;29610;49.022;12.114;2023-09-30T13:22:44;12.30;;;5.40;;
18793;SDS011;29610;49.022;12.114;2023-09-30T13:25:13;10.87;;;3.60;;
18793;SDS011;29610;49.022;12.114;2023-09-30T13:27:42;8.90;;;2.60;;
18793;SDS011;29610;49.022;12.114;2023-09-30T13:30:11;13.30;;;4.20;;
18793;SDS011;29610;49.022;12.114;2023-09-30T13:32:41;12.43;;;3.30;;
18793;SDS011;29610;49.022;12.114;2023-09-30T13:35:09;10.07;;;2.73;;
18793;SDS011;29610;49.022;12.114;2023-09-30T13:37:37;9.00;;;2.97;;
18793;SDS011;29610;49.022;12.114;2023-09-30T13:40:07;11.40;;;3.87;;
18793;SDS011;29610;49.022;12.114;2023-09-30T13:42:39;9.60;;;3.10;;
18793;SDS011;29610;49.022;12.114;2023-09-30T13:45:09;10.47;;;3.10;;
18793;SDS011;29610;49.022;12.114;2023-09-30T13:47:38;10.63;;;3.40;;
18793;SDS011;29610;49.022;12.114;2023-09-30T13:50:08;9.90;;;3.40;;
18793;SDS011;29610;49.022;12.114;2023-09-30T13:52:36;9.77;;;3.30;;
18793;SDS011;29610;49.022;12.114;2023-09-30T13:55:05;13.40;;;3.47;;
18793;SDS011;29610;49.022;12.114;2023-09-30T13:57:35;9.60;;;3.23;;
18793;SDS011;29610;49.022;12.114;2023-09-30T14:00:03;10.20;;;3.10;;
18793;SDS011;29610;49.022;12.114;2023-09-30T14:02:37;10.80;;;3.17;;
18793;SDS011;29610;49.022;12.114;2023-09-30T14:05:07;10.53;;;3.00;;
18793;SDS011;29610;49.022;12.114;2023-09-30T14:07:38;10.57;;;3.07;;
18793;SDS011;29610;49.022;12.114;2023-09-30T14:10:07;13.60;;;3.83;;
18793;SDS011;29610;49.022;12.114;2023-09-30T14:12:37;9.60;;;3.30;;
18793;SDS011;29610;49.022;12.114;2023-09-30T14:15:07;11.93;;;3.13;;
18793;SDS011;29610;49.022;12.114;2023-09-30T14:17:36;12.70;;;4.23;;
18793;SDS011;29610;49.022;12.114;2023-09-30T14:20:05;10.50;;;3.27;;
18793;SDS011;29610;49.022;12.114;2023-09-30T14:22:38;11.43;;;3.03;;
18793;SDS011;29610;49.022;12.114;2023-09-30T14:25:07;9.07;;;2.90;;
18793;SDS011;29610;49.022;12.114;2023-09-30T14:27:36;13.07;;;3.90;;
18793;SDS011;29610;49.022;12.114;2023-09-30T14:30:04;10.93;;;3.43;;
18793;SDS011;29610;49.022;12.114;2023-09-30T14:32:34;12.43;;;3.30;;
18793;SDS011;29610;49.022;12.114;2023-09-30T14:35:04;10.47;;;3.13;;
18793;SDS011;29610;49.022;12.114;2023-09-30T14:37:35;11.57;;;3.53;;
18793;SDS011;29610;49.022;12.114;2023-09-30T14:40:06;10.00;;;3.27;;
18793;SDS011;29610;49.022;12.114;2023-09-30T14:42:37;12.83;;;3.77;;
18793;SDS011;29610;49.022;12.114;2023-09-30T14:45:05;9.60;;;2.80;;
18793;SDS011;29610;49.022;12.114;2023-09-30T14:47:37;10.80;;;3.93;;
18793;SDS011;29610;49.022;12.114;2023-09-30T14:50:06;9.27;;;2.60;;
18793;SDS011;29610;49.022;12.114;2023-09-30T14:52:39;12.03;;;3.57;;